Create Custom Reports and Graphics: Custom Report

Latest Observations

Map

15 Minute Data

South County Map

Map

15 Minute Data

Northern Sonoma County Latest

13 Stations

15 Minute Data | America/Los_Angeles
as of 4/5/20 4:08 AM PDT
Station Date Time Temp (°F) RH (%) Dew Pt (°F) Wind Spd (mph) Wind Dir (°) Wind Gust (mph) Latest Rain (In) Daily Rain (In) Daily Min Temp (°F) Daily Max Temp (°F)
Rockpile Upper (Cooley) 4/5/20 0400 41.9   4.2 100   13 41.9   7.7 12.6 SSE | 154 17.1   2.4 0.01 0.07 41.7   5.3 42.6   4.7
Rockpile Lower (Cooley) 4/4/20 1630 50.7   7.7 80   41 44.8   11.1 5.3 SW | 233 13.0   4.4 0.00 0.59 38.8   1.3 54.4   5.8
Cloverdale-East (Ranch 83) 4/5/20 0400 49.3   6.3 88   8 45.9   8.5 8.4 SE | 130 16.1   10.4 0.00 0.05 48.7   8.2 49.6   5.5
Cloverdale-SE (Ranch 38) 4/5/20 0400 47.8   5.0 93   14 45.9   9.1 5.8 SE | 141 15.0   8.7 0.00 0.05 47.4   6.0 48.0   4.9
Geyserville-North (Hoffman) 4/5/20 0400 49.1   8.3 93   10 47.2   11.2 4.9 SE | 125 8.6   6.7 0.00 0.01 48.7   8.5 49.8   4.8
Geyserville (Ranch 3) 4/5/20 0400 49.5   6.7 96   17 48.2   11.5 5.4 ESE | 114 8.6   5.0 0.00 0.01 49.2   7.0 49.8   3.2
Geyserville-East (Ranch 40) 4/5/20 0400 47.8   6.0 94   13 46.3   9.8 11.1 SSE | 156 16.0   8.5 0.00 0.00 47.1   6.6 48.0   5.1
Geyserville-South (Nervo Station) 4/5/20 0400 48.8   6.2 96   19 47.7   11.9 2.0 SE | 146 5.1   1.7 0.00 0.01 48.1   7.2 49.3   3.1
Lytton (River Oaks) 4/5/20 0400 49.7   10.5 94   6 48.1   12.0 3.6 E | 94 5.6   3.1 0.00 0.00 49.2   10.4 49.9   5.5
Jimtown-North (Piccolo-R15) 4/5/20 0400 49.9   10.9 100   17 49.9   15.5 1.8 ESE | 113 3.7   2.6 0.00 0.01 49.3   10.8 50.2   4.1
Jimtown-NE (Red Fan) 4/5/20 0400 50.2   10.6 92   3 47.9   9.8 4.0 SE | 138 6.6   5.2 0.00 0.00 49.6   10.3 50.4   8.5
HWY 128/Chalk Hill Rd (Landslide) 4/5/20 0400 49.6   12.0 95   1 48.3   11.6 1.9 ENE | 59 4.1   3.2 0.09 0.09 49.4   12.0 50.2   7.0
Lower Dry Creek Valley 4/5/20 0400 49.5   7.6 96   13 48.5   11.4 4.2 ESE | 116 7.4   4.7 0.00 0.01 48.8   7.1 49.6   2.9
Max     50.2 100 49.9 12.6 - 17.1 0.09 0.09 49.6 50.4
Avg     48.6 95 47.2 5.5 - 9.5 0.01 - - -
Min     41.9 88 41.9 1.8 - 3.7 0.00 0.00 41.7 42.6

Central Sonoma County Latest

24 Stations

15 Minute Data | America/Los_Angeles
as of 4/5/20 4:08 AM PDT
Station Date Time Temp (°F) RH (%) Dew Pt (°F) Wind Spd (mph) Wind Dir (°) Wind Gust (mph) Latest Rain (In) Daily Rain (In) Daily Min Temp (°F) Daily Max Temp (°F)
Healdsburg-South (Sodini) 4/5/20 0400 49.7   10.9 94   6 48.0   12.6 3.1 SE | 126 10.8   10.8 0.03 0.03 49.0   10.6 50.0   3.6
Windsor-NW (Ranch 8) 4/5/20 0400 49.8   8.9 90   2 47.2   9.5 3.5 SE | 143 11.0   8.5 0.04 0.04 49.4   8.7 50.1   3.6
Windsor-East (Ranch 16) 4/5/20 0400 49.3   11.3 97   6 48.4   12.8 5.7 SSE | 148 10.3   7.7 0.06 0.19 49.2   11.5 50.2   4.5
Mark West-North (Ranch 14) 4/5/20 0400 49.3   10.6 97   9 48.5   13.0 3.5 SSE | 155 6.7   4.9 0.04 0.19 49.2   10.8 49.8   6.6
Windsor-SE (Silk Rd) 4/5/20 0400 49.4   11.5 98   2 48.9   11.9 4.3 S | 171 8.5   8.5 0.02 0.09 49.2   11.6 49.6   8.8
Fulton-NW (Ranch 5) 4/5/20 0400 49.3   10.7 99   7 49.2   12.5 6.0 SE | 134 11.6   11.0 0.03 0.22 49.3   10.8 50.0   7.8
Windsor-South (Laughlin Rd) 4/5/20 0400 49.1   8.1 - - - - - 0.02 0.10 48.6   8.3 49.4   6.5
Fulton-SE (Barnes Rd) 4/5/20 0400 49.3   10.8 96   6 48.1   12.4 2.7 S | 182 5.2   3.7 0.01 0.08 49.0   11.0 49.9   7.1
Fulton-SW (Ranch 21) 4/5/20 0400 48.9   9.2 99   5 48.6   10.5 5.5 SSE | 165 10.1   8.4 0.01 0.21 48.6   9.5 49.2   6.7
Santa Rosa-NW (Goldfields) 4/5/20 0400 49.2   9.5 98   4 48.7   10.5 5.0 SE | 140 9.5   7.1 0.00 0.18 48.8   9.8 49.4   7.0
River Rd South (Denner Ranch) 4/5/20 0400 49.2   11.8 97   2 48.3   11.3 6.4 SE | 139 9.6   7.2 0.01 0.11 47.8   10.8 49.7   9.0
Guerneville Rd West (Balletto) 4/5/20 0400 49.3   11.1 96   0 48.3   10.9 4.2 SSE | 154 6.8   5.3 0.00 0.15 48.4   10.4 49.7   9.5
Guerneville Rd East (Rich Ranch) 4/5/20 0400 49.3   10.8 98   3 48.9   11.6 - - - - - 48.7   10.7 49.6   8.3
Occidental Rd (Sebastopol) 4/5/20 0400 49.1   11.0 100   0 49.1   11.0 3.1 SSE | 153 7.5   5.7 0.00 0.10 47.6   11.0 49.5   10.1
Lower Westside Rd (Ranch 12) 4/5/20 0400 50.0   11.6 97   3 49.2   12.4 3.4 SSE | 153 9.2   8.5 0.02 0.03 49.2   11.0 50.3   8.8
Guerneville (Laughlin Rd) 4/5/20 0400 48.9   11.8 99   2 48.7   12.4 0.6 N | 1 3.3   3.3 0.00 0.00 48.8   12.1 49.3   9.9
Korbel (Winery) 4/5/20 0400 49.6   10.7 98   1 49.0   11.0 1.9 ENE | 59 3.9   3.9 0.00 0.00 49.3   10.5 49.9   7.9
Forestville (Shone Farms) 4/5/20 0400 50.0   8.7 94   12 48.2   12.0 4.7 SSE | 151 12.9   10.4 0.00 0.03 48.4   8.0 51.4   4.9
Forestville-NE (Ranch 30) 4/5/20 0400 49.8   10.0 94   4 48.1   11.2 6.0 SSE | 163 15.0   11.6 0.01 0.03 48.8   9.5 50.4   7.2
Graton-West (Dutton Ranch) 4/5/20 0400 50.5   12.2 100   0 50.5   12.2 4.9 S | 182 9.7   7.6 0.00 0.02 49.6   11.7 51.1   9.8
Graton-South (Mill Station Rd) 4/5/20 0400 49.9   11.9 94   2 48.2   11.4 6.2 S | 169 10.7   9.5 0.00 0.09 49.1   11.5 50.5   9.2
Sexton Valley (Jacqueline's Blk) 4/5/20 0400 49.3   11.5 94   4 47.6   12.5 1.4 SW | 232 4.9   0.9 0.00 0.08 48.9   12.2 50.4   8.8
Sebastopol Hills (Burnside Rd) 4/5/20 0400 48.6   5.3 96   24 47.6   12.5 6.6 S | 178 12.1   6.0 0.00 0.13 48.2   6.1 49.3   4.9
Seaview/Fort Ross (Hirsch) 4/5/20 0400 45.5   5.5 97   20 44.7   11.2 6.2 SSW | 196 14.3   8.9 0.00 0.02 44.6   5.5 45.7   5.4
Max     50.5 100 50.5 6.6 - 15.0 0.06 0.22 49.6 51.4
Avg     49.3 97 48.4 4.3 - 9.3 0.01 - - -
Min     45.5 90 44.7 0.6 - 3.3 0.00 0.00 44.6 45.7

Southern Sonoma County Latest

14 Stations

15 Minute Data | America/Los_Angeles
as of 4/5/20 4:08 AM PDT
Station Date Time Temp (°F) RH (%) Dew Pt (°F) Wind Spd (mph) Wind Dir (°) Wind Gust (mph) Latest Rain (In) Daily Rain (In) Daily Min Temp (°F) Daily Max Temp (°F)
Lower Bennett Valley 4/5/20 0400 49.2   15.1 92   5 47.0   13.6 4.9 SE | 130 8.8   5.5 0.00 0.01 47.8   15.0 49.6   13.8
Kenwood (Kunde) 4/5/20 0400 46.1   11.0 94   2 44.6   11.4 2.1 SE | 125 5.5   5.5 0.01 0.02 45.6   11.3 46.8   9.6
Sonoma Valley (Bedrock) 4/5/20 0400 48.1   7.0 100   22 48.1   13.3 0.1 S | 185 1.7   2.7 0.01 0.01 47.6   10.2 49.4   5.6
Sonoma-West (Arnold) 4/5/20 0400 48.4   10.9 97   6 47.6   12.4 0.3 SE | 126 2.4   0.5 0.00 0.00 47.1   10.0 49.2   6.0
Schellville 4/5/20 0400 51.6   12.1 90   1 48.7   11.8 1.6 SSW | 201 7.4   5.0 0.00 0.00 48.9   10.0 51.6   6.2
Sonoma-SE (Napoli) 4/5/20 0400 51.4   12.7 90   2 48.6   11.8 2.3 ESE | 122 4.8   1.3 0.00 0.00 49.1   11.7 52.2   9.6
Carneros (Ranch 71) 4/5/20 0400 50.6   7.8 94   12 48.9   11.3 2.6 S | 186 7.1   3.6 0.00 0.00 49.7   8.4 50.8   7.6
Carneros Upper (Ranch 81) 4/5/20 0400 50.7   8.1 92   10 48.6   11.1 11.3 SSW | 194 15.6   5.8 - - 49.4   7.6 51.4   7.6
Carneros Lower (Ranch 81) 4/5/20 0400 50.8   9.4 96   8 49.7   11.5 4.2 S | 187 10.4   7.9 0.00 0.00 49.4   10.2 51.1   7.7
Rohnert Park-West (Stony Point) 4/5/20 0400 50.5   14.6 92   3 48.2   13.8 5.6 S | 173 10.3   8.2 0.00 0.02 47.6   13.3 50.7   10.8
Penngrove (Asellus) 4/5/20 0400 49.7   11.2 93   2 47.8   10.4 5.6 SE | 126 8.6   6.5 0.00 0.01 49.2   14.5 50.9   12.1
Roger's Creek (Ranch 50) 4/5/20 0400 48.7   6.6 90   6 46.0   8.3 2.9 S | 187 6.3   1.6 0.00 0.00 47.9   6.6 49.0   6.5
Petaluma (Ranch 10) 4/5/20 0400 48.7   8.3 98   9 48.2   10.9 0.1 E | 82 0.7   1.9 0.00 0.01 47.5   12.1 48.8   8.2
Lakeville (Ranch 47) 4/5/20 0400 51.5   15.1 86   7 47.3   12.8 4.0 ESE | 118 7.5   6.1 0.00 0.00 48.9   12.8 51.9   9.7
Max     51.6 100 49.7 11.3 - 15.6 0.01 0.02 49.7 52.2
Avg     49.7 93 47.8 3.4 - 6.9 0.00 - - -
Min     46.1 86 44.6 0.1 - 0.7 0.00 0.00 45.6 46.8